sensor_id;sensor_type;location;lat;lon;timestamp;P1;durP1;ratioP1;P2;durP2;ratioP2
6791;SDS011;3433;48.730;9.108;2023-05-07T00:01:32;4.67;;;3.50;;
6791;SDS011;3433;48.730;9.108;2023-05-07T00:04:25;4.73;;;2.93;;
6791;SDS011;3433;48.730;9.108;2023-05-07T00:06:53;4.00;;;3.40;;
6791;SDS011;3433;48.730;9.108;2023-05-07T00:09:20;3.93;;;3.30;;
6791;SDS011;3433;48.730;9.108;2023-05-07T00:11:47;3.83;;;3.50;;
6791;SDS011;3433;48.730;9.108;2023-05-07T00:14:14;5.53;;;3.90;;
6791;SDS011;3433;48.730;9.108;2023-05-07T00:16:40;3.93;;;3.40;;
6791;SDS011;3433;48.730;9.108;2023-05-07T00:19:07;3.70;;;3.40;;
6791;SDS011;3433;48.730;9.108;2023-05-07T00:21:35;4.00;;;3.70;;
6791;SDS011;3433;48.730;9.108;2023-05-07T00:24:03;3.93;;;3.57;;
6791;SDS011;3433;48.730;9.108;2023-05-07T00:26:30;4.90;;;3.70;;
6791;SDS011;3433;48.730;9.108;2023-05-07T00:28:57;5.27;;;3.97;;
6791;SDS011;3433;48.730;9.108;2023-05-07T00:31:24;4.10;;;3.70;;
6791;SDS011;3433;48.730;9.108;2023-05-07T00:33:50;4.30;;;3.70;;
6791;SDS011;3433;48.730;9.108;2023-05-07T00:36:17;5.30;;;4.00;;
6791;SDS011;3433;48.730;9.108;2023-05-07T00:38:46;5.50;;;4.10;;
6791;SDS011;3433;48.730;9.108;2023-05-07T00:41:12;5.37;;;4.80;;
6791;SDS011;3433;48.730;9.108;2023-05-07T00:43:39;4.13;;;3.83;;
6791;SDS011;3433;48.730;9.108;2023-05-07T00:46:06;6.03;;;3.93;;
6791;SDS011;3433;48.730;9.108;2023-05-07T00:48:33;4.83;;;4.37;;
6791;SDS011;3433;48.730;9.108;2023-05-07T00:51:00;4.30;;;3.57;;
6791;SDS011;3433;48.730;9.108;2023-05-07T00:53:27;4.00;;;3.70;;
6791;SDS011;3433;48.730;9.108;2023-05-07T00:55:56;3.90;;;3.43;;
6791;SDS011;3433;48.730;9.108;2023-05-07T00:58:23;4.13;;;3.20;;
6791;SDS011;3433;48.730;9.108;2023-05-07T01:00:50;3.67;;;3.33;;
6791;SDS011;3433;48.730;9.108;2023-05-07T01:03:17;3.67;;;3.37;;
6791;SDS011;3433;48.730;9.108;2023-05-07T01:05:44;4.17;;;3.37;;
6791;SDS011;3433;48.730;9.108;2023-05-07T01:08:14;3.70;;;3.40;;
6791;SDS011;3433;48.730;9.108;2023-05-07T01:10:41;3.50;;;3.20;;
6791;SDS011;3433;48.730;9.108;2023-05-07T01:13:11;4.23;;;3.87;;
6791;SDS011;3433;48.730;9.108;2023-05-07T01:15:39;3.83;;;3.53;;
6791;SDS011;3433;48.730;9.108;2023-05-07T01:18:06;3.60;;;3.30;;
6791;SDS011;3433;48.730;9.108;2023-05-07T01:20:33;3.60;;;3.27;;
6791;SDS011;3433;48.730;9.108;2023-05-07T01:23:02;4.47;;;3.57;;
6791;SDS011;3433;48.730;9.108;2023-05-07T01:25:29;4.50;;;3.77;;
6791;SDS011;3433;48.730;9.108;2023-05-07T01:27:57;4.83;;;3.60;;
6791;SDS011;3433;48.730;9.108;2023-05-07T01:30:24;3.67;;;3.37;;
6791;SDS011;3433;48.730;9.108;2023-05-07T01:32:53;5.53;;;3.77;;
6791;SDS011;3433;48.730;9.108;2023-05-07T01:35:27;5.00;;;4.07;;
6791;SDS011;3433;48.730;9.108;2023-05-07T01:37:58;6.70;;;3.23;;
6791;SDS011;3433;48.730;9.108;2023-05-07T01:40:27;3.60;;;3.30;;
6791;SDS011;3433;48.730;9.108;2023-05-07T01:42:54;4.10;;;3.70;;
6791;SDS011;3433;48.730;9.108;2023-05-07T01:45:21;4.43;;;3.67;;
6791;SDS011;3433;48.730;9.108;2023-05-07T01:47:48;6.17;;;4.03;;
6791;SDS011;3433;48.730;9.108;2023-05-07T01:50:16;3.60;;;3.30;;
6791;SDS011;3433;48.730;9.108;2023-05-07T01:52:44;3.53;;;3.23;;
6791;SDS011;3433;48.730;9.108;2023-05-07T01:55:11;4.13;;;3.53;;
6791;SDS011;3433;48.730;9.108;2023-05-07T01:57:40;3.57;;;3.27;;
6791;SDS011;3433;48.730;9.108;2023-05-07T02:00:07;4.50;;;4.10;;
6791;SDS011;3433;48.730;9.108;2023-05-07T02:02:34;4.40;;;3.83;;
6791;SDS011;3433;48.730;9.108;2023-05-07T02:05:03;3.83;;;3.40;;
6791;SDS011;3433;48.730;9.108;2023-05-07T02:07:31;3.80;;;3.50;;
6791;SDS011;3433;48.730;9.108;2023-05-07T02:09:57;3.97;;;3.50;;
6791;SDS011;3433;48.730;9.108;2023-05-07T02:12:24;8.67;;;3.70;;
6791;SDS011;3433;48.730;9.108;2023-05-07T02:14:53;4.30;;;3.50;;
6791;SDS011;3433;48.730;9.108;2023-05-07T02:17:19;3.30;;;3.00;;
6791;SDS011;3433;48.730;9.108;2023-05-07T02:19:46;3.63;;;3.33;;
6791;SDS011;3433;48.730;9.108;2023-05-07T02:22:13;4.00;;;3.60;;
6791;SDS011;3433;48.730;9.108;2023-05-07T02:24:40;7.40;;;3.60;;
6791;SDS011;3433;48.730;9.108;2023-05-07T02:27:07;4.77;;;4.20;;
6791;SDS011;3433;48.730;9.108;2023-05-07T02:29:34;4.13;;;3.70;;
6791;SDS011;3433;48.730;9.108;2023-05-07T02:32:02;4.07;;;3.40;;
6791;SDS011;3433;48.730;9.108;2023-05-07T02:34:29;4.27;;;3.90;;
6791;SDS011;3433;48.730;9.108;2023-05-07T02:36:56;4.23;;;3.83;;
6791;SDS011;3433;48.730;9.108;2023-05-07T02:39:23;4.63;;;3.83;;
6791;SDS011;3433;48.730;9.108;2023-05-07T02:41:50;3.90;;;3.57;;
6791;SDS011;3433;48.730;9.108;2023-05-07T02:44:17;4.50;;;4.10;;
6791;SDS011;3433;48.730;9.108;2023-05-07T02:46:44;3.43;;;3.13;;
6791;SDS011;3433;48.730;9.108;2023-05-07T02:49:12;3.40;;;3.10;;
6791;SDS011;3433;48.730;9.108;2023-05-07T02:51:39;5.80;;;3.80;;
6791;SDS011;3433;48.730;9.108;2023-05-07T02:54:06;3.83;;;3.53;;
6791;SDS011;3433;48.730;9.108;2023-05-07T02:56:33;4.10;;;3.70;;
6791;SDS011;3433;48.730;9.108;2023-05-07T02:59:00;3.80;;;3.50;;
6791;SDS011;3433;48.730;9.108;2023-05-07T03:01:27;4.90;;;3.90;;
6791;SDS011;3433;48.730;9.108;2023-05-07T03:03:53;3.10;;;2.80;;
6791;SDS011;3433;48.730;9.108;2023-05-07T03:06:22;7.23;;;3.83;;
6791;SDS011;3433;48.730;9.108;2023-05-07T03:08:49;4.50;;;4.10;;
6791;SDS011;3433;48.730;9.108;2023-05-07T03:11:16;4.03;;;3.63;;
6791;SDS011;3433;48.730;9.108;2023-05-07T03:13:43;3.47;;;3.03;;
6791;SDS011;3433;48.730;9.108;2023-05-07T03:16:10;3.40;;;3.10;;
6791;SDS011;3433;48.730;9.108;2023-05-07T03:18:37;3.53;;;3.03;;
6791;SDS011;3433;48.730;9.108;2023-05-07T03:21:04;3.33;;;3.00;;
6791;SDS011;3433;48.730;9.108;2023-05-07T03:23:32;5.80;;;3.00;;
6791;SDS011;3433;48.730;9.108;2023-05-07T03:25:59;3.03;;;2.83;;
6791;SDS011;3433;48.730;9.108;2023-05-07T03:28:26;4.07;;;3.57;;
6791;SDS011;3433;48.730;9.108;2023-05-07T03:30:52;3.80;;;3.50;;
6791;SDS011;3433;48.730;9.108;2023-05-07T03:33:19;3.90;;;3.53;;
6791;SDS011;3433;48.730;9.108;2023-05-07T03:35:46;3.33;;;3.03;;
6791;SDS011;3433;48.730;9.108;2023-05-07T03:38:13;3.60;;;3.30;;
6791;SDS011;3433;48.730;9.108;2023-05-07T03:40:41;3.93;;;3.63;;
6791;SDS011;3433;48.730;9.108;2023-05-07T03:43:08;3.17;;;2.87;;
6791;SDS011;3433;48.730;9.108;2023-05-07T03:45:35;3.60;;;3.30;;
6791;SDS011;3433;48.730;9.108;2023-05-07T03:48:02;3.63;;;3.30;;
6791;SDS011;3433;48.730;9.108;2023-05-07T03:50:30;3.50;;;3.20;;
6791;SDS011;3433;48.730;9.108;2023-05-07T03:52:56;3.50;;;3.20;;
6791;SDS011;3433;48.730;9.108;2023-05-07T03:55:23;3.33;;;3.03;;
6791;SDS011;3433;48.730;9.108;2023-05-07T03:57:52;3.27;;;2.97;;
6791;SDS011;3433;48.730;9.108;2023-05-07T04:00:19;3.50;;;3.30;;
6791;SDS011;3433;48.730;9.108;2023-05-07T04:02:47;3.93;;;3.53;;
6791;SDS011;3433;48.730;9.108;2023-05-07T04:05:14;3.20;;;3.00;;
6791;SDS011;3433;48.730;9.108;2023-05-07T04:07:41;3.53;;;3.23;;
6791;SDS011;3433;48.730;9.108;2023-05-07T04:10:08;4.80;;;2.97;;
6791;SDS011;3433;48.730;9.108;2023-05-07T04:12:35;4.00;;;3.00;;
6791;SDS011;3433;48.730;9.108;2023-05-07T04:15:04;3.50;;;3.20;;
6791;SDS011;3433;48.730;9.108;2023-05-07T04:17:31;3.40;;;3.20;;
6791;SDS011;3433;48.730;9.108;2023-05-07T04:19:58;3.63;;;2.97;;
6791;SDS011;3433;48.730;9.108;2023-05-07T04:22:25;6.03;;;3.47;;
6791;SDS011;3433;48.730;9.108;2023-05-07T04:24:52;3.77;;;3.37;;
6791;SDS011;3433;48.730;9.108;2023-05-07T04:27:19;3.80;;;3.47;;
6791;SDS011;3433;48.730;9.108;2023-05-07T04:29:46;3.73;;;3.30;;
6791;SDS011;3433;48.730;9.108;2023-05-07T04:32:14;2.90;;;2.70;;
6791;SDS011;3433;48.730;9.108;2023-05-07T04:34:41;3.47;;;3.17;;
6791;SDS011;3433;48.730;9.108;2023-05-07T04:37:08;5.30;;;3.13;;
6791;SDS011;3433;48.730;9.108;2023-05-07T04:39:35;2.90;;;2.70;;
6791;SDS011;3433;48.730;9.108;2023-05-07T04:42:02;3.13;;;2.83;;
6791;SDS011;3433;48.730;9.108;2023-05-07T04:44:29;2.90;;;2.70;;
6791;SDS011;3433;48.730;9.108;2023-05-07T04:46:57;3.20;;;2.90;;
6791;SDS011;3433;48.730;9.108;2023-05-07T04:49:25;5.73;;;2.87;;
6791;SDS011;3433;48.730;9.108;2023-05-07T04:51:52;3.00;;;2.63;;
6791;SDS011;3433;48.730;9.108;2023-05-07T04:54:19;3.70;;;3.40;;
6791;SDS011;3433;48.730;9.108;2023-05-07T04:56:45;4.47;;;3.13;;
6791;SDS011;3433;48.730;9.108;2023-05-07T04:59:12;3.30;;;3.03;;
6791;SDS011;3433;48.730;9.108;2023-05-07T05:01:39;3.27;;;3.07;;
6791;SDS011;3433;48.730;9.108;2023-05-07T05:04:06;3.77;;;3.40;;
6791;SDS011;3433;48.730;9.108;2023-05-07T05:06:34;3.57;;;3.00;;
6791;SDS011;3433;48.730;9.108;2023-05-07T05:09:01;3.43;;;3.13;;
6791;SDS011;3433;48.730;9.108;2023-05-07T05:11:29;7.13;;;3.73;;
6791;SDS011;3433;48.730;9.108;2023-05-07T05:13:56;6.30;;;3.30;;
6791;SDS011;3433;48.730;9.108;2023-05-07T05:16:25;3.80;;;3.50;;
6791;SDS011;3433;48.730;9.108;2023-05-07T05:18:52;3.60;;;3.30;;
6791;SDS011;3433;48.730;9.108;2023-05-07T05:21:20;4.13;;;3.73;;
6791;SDS011;3433;48.730;9.108;2023-05-07T05:23:51;3.70;;;3.30;;
6791;SDS011;3433;48.730;9.108;2023-05-07T05:26:18;3.70;;;3.20;;
6791;SDS011;3433;48.730;9.108;2023-05-07T05:28:46;3.30;;;3.10;;
6791;SDS011;3433;48.730;9.108;2023-05-07T05:31:13;3.87;;;3.47;;
6791;SDS011;3433;48.730;9.108;2023-05-07T05:33:40;5.53;;;4.20;;
6791;SDS011;3433;48.730;9.108;2023-05-07T05:36:08;3.97;;;3.63;;
6791;SDS011;3433;48.730;9.108;2023-05-07T05:38:37;4.80;;;4.30;;
6791;SDS011;3433;48.730;9.108;2023-05-07T05:41:05;4.37;;;3.97;;
6791;SDS011;3433;48.730;9.108;2023-05-07T05:43:32;8.50;;;5.17;;
6791;SDS011;3433;48.730;9.108;2023-05-07T05:45:59;5.80;;;4.87;;
6791;SDS011;3433;48.730;9.108;2023-05-07T05:48:26;5.53;;;4.40;;
6791;SDS011;3433;48.730;9.108;2023-05-07T05:50:53;5.47;;;4.50;;
6791;SDS011;3433;48.730;9.108;2023-05-07T05:53:20;5.90;;;4.90;;
6791;SDS011;3433;48.730;9.108;2023-05-07T05:55:46;4.07;;;3.70;;
6791;SDS011;3433;48.730;9.108;2023-05-07T05:58:15;5.50;;;4.03;;
6791;SDS011;3433;48.730;9.108;2023-05-07T06:00:42;4.93;;;4.43;;
6791;SDS011;3433;48.730;9.108;2023-05-07T06:03:12;5.70;;;3.67;;
6791;SDS011;3433;48.730;9.108;2023-05-07T06:05:38;5.03;;;3.73;;
6791;SDS011;3433;48.730;9.108;2023-05-07T06:08:05;7.23;;;4.47;;
6791;SDS011;3433;48.730;9.108;2023-05-07T06:10:32;5.50;;;3.93;;
6791;SDS011;3433;48.730;9.108;2023-05-07T06:12:59;4.60;;;4.13;;
6791;SDS011;3433;48.730;9.108;2023-05-07T06:15:27;5.00;;;4.50;;
6791;SDS011;3433;48.730;9.108;2023-05-07T06:17:54;5.37;;;3.87;;
6791;SDS011;3433;48.730;9.108;2023-05-07T06:20:22;5.27;;;3.80;;
6791;SDS011;3433;48.730;9.108;2023-05-07T06:22:49;4.03;;;3.60;;
6791;SDS011;3433;48.730;9.108;2023-05-07T06:25:16;4.87;;;4.47;;
6791;SDS011;3433;48.730;9.108;2023-05-07T06:27:43;5.50;;;4.30;;
6791;SDS011;3433;48.730;9.108;2023-05-07T06:30:13;4.90;;;4.50;;
6791;SDS011;3433;48.730;9.108;2023-05-07T06:32:41;5.77;;;4.60;;
6791;SDS011;3433;48.730;9.108;2023-05-07T06:35:08;5.30;;;4.27;;
6791;SDS011;3433;48.730;9.108;2023-05-07T06:37:35;7.20;;;5.27;;
6791;SDS011;3433;48.730;9.108;2023-05-07T06:40:03;5.20;;;4.70;;
6791;SDS011;3433;48.730;9.108;2023-05-07T06:42:32;6.07;;;5.40;;
6791;SDS011;3433;48.730;9.108;2023-05-07T06:44:58;7.00;;;5.03;;
6791;SDS011;3433;48.730;9.108;2023-05-07T06:47:26;8.90;;;5.40;;
6791;SDS011;3433;48.730;9.108;2023-05-07T06:49:54;4.90;;;4.40;;
6791;SDS011;3433;48.730;9.108;2023-05-07T06:52:21;4.97;;;4.57;;
6791;SDS011;3433;48.730;9.108;2023-05-07T06:54:47;5.27;;;4.77;;
6791;SDS011;3433;48.730;9.108;2023-05-07T06:57:14;7.43;;;4.40;;
6791;SDS011;3433;48.730;9.108;2023-05-07T06:59:41;6.90;;;4.90;;
6791;SDS011;3433;48.730;9.108;2023-05-07T07:02:08;4.90;;;4.27;;
6791;SDS011;3433;48.730;9.108;2023-05-07T07:04:35;5.50;;;4.73;;
6791;SDS011;3433;48.730;9.108;2023-05-07T07:07:03;5.27;;;4.77;;
6791;SDS011;3433;48.730;9.108;2023-05-07T07:09:30;7.47;;;5.00;;
6791;SDS011;3433;48.730;9.108;2023-05-07T07:11:57;5.67;;;4.63;;
6791;SDS011;3433;48.730;9.108;2023-05-07T07:14:24;5.17;;;4.67;;
6791;SDS011;3433;48.730;9.108;2023-05-07T07:16:51;5.60;;;5.03;;
6791;SDS011;3433;48.730;9.108;2023-05-07T07:19:18;5.27;;;4.77;;
6791;SDS011;3433;48.730;9.108;2023-05-07T07:21:46;5.73;;;4.70;;
6791;SDS011;3433;48.730;9.108;2023-05-07T07:24:14;5.37;;;4.87;;
6791;SDS011;3433;48.730;9.108;2023-05-07T07:26:46;7.90;;;6.20;;
6791;SDS011;3433;48.730;9.108;2023-05-07T07:29:12;5.90;;;5.40;;
6791;SDS011;3433;48.730;9.108;2023-05-07T07:31:39;5.73;;;5.00;;
6791;SDS011;3433;48.730;9.108;2023-05-07T07:34:06;6.10;;;5.60;;
6791;SDS011;3433;48.730;9.108;2023-05-07T07:36:33;7.97;;;5.53;;
6791;SDS011;3433;48.730;9.108;2023-05-07T07:39:00;5.70;;;5.20;;
6791;SDS011;3433;48.730;9.108;2023-05-07T07:41:28;6.53;;;4.60;;
6791;SDS011;3433;48.730;9.108;2023-05-07T07:43:55;6.70;;;5.47;;
6791;SDS011;3433;48.730;9.108;2023-05-07T07:46:22;5.20;;;4.70;;
6791;SDS011;3433;48.730;9.108;2023-05-07T07:48:49;5.97;;;4.83;;
6791;SDS011;3433;48.730;9.108;2023-05-07T07:51:16;4.60;;;4.20;;
6791;SDS011;3433;48.730;9.108;2023-05-07T07:53:42;6.93;;;4.77;;
6791;SDS011;3433;48.730;9.108;2023-05-07T07:56:12;4.83;;;4.33;;
6791;SDS011;3433;48.730;9.108;2023-05-07T07:58:41;4.70;;;4.30;;
6791;SDS011;3433;48.730;9.108;2023-05-07T08:01:08;5.03;;;4.53;;
6791;SDS011;3433;48.730;9.108;2023-05-07T08:03:34;4.70;;;4.00;;
6791;SDS011;3433;48.730;9.108;2023-05-07T08:06:03;8.20;;;4.60;;
6791;SDS011;3433;48.730;9.108;2023-05-07T08:08:30;5.63;;;4.47;;
6791;SDS011;3433;48.730;9.108;2023-05-07T08:10:57;4.57;;;4.17;;
6791;SDS011;3433;48.730;9.108;2023-05-07T08:13:24;4.73;;;4.30;;
6791;SDS011;3433;48.730;9.108;2023-05-07T08:15:52;4.93;;;4.53;;
6791;SDS011;3433;48.730;9.108;2023-05-07T08:18:19;5.00;;;4.50;;
6791;SDS011;3433;48.730;9.108;2023-05-07T08:20:46;5.47;;;4.90;;
6791;SDS011;3433;48.730;9.108;2023-05-07T08:23:13;4.10;;;3.80;;
6791;SDS011;3433;48.730;9.108;2023-05-07T08:25:40;5.93;;;4.07;;
6791;SDS011;3433;48.730;9.108;2023-05-07T08:28:07;4.43;;;4.03;;
6791;SDS011;3433;48.730;9.108;2023-05-07T08:30:34;4.47;;;4.10;;
6791;SDS011;3433;48.730;9.108;2023-05-07T08:33:02;3.67;;;3.37;;
6791;SDS011;3433;48.730;9.108;2023-05-07T08:35:29;4.60;;;4.20;;
6791;SDS011;3433;48.730;9.108;2023-05-07T08:37:56;4.80;;;4.40;;
6791;SDS011;3433;48.730;9.108;2023-05-07T08:40:24;4.50;;;4.10;;
6791;SDS011;3433;48.730;9.108;2023-05-07T08:42:52;4.70;;;4.23;;
6791;SDS011;3433;48.730;9.108;2023-05-07T08:45:20;4.73;;;4.33;;
6791;SDS011;3433;48.730;9.108;2023-05-07T08:47:47;4.97;;;4.57;;
6791;SDS011;3433;48.730;9.108;2023-05-07T08:50:19;7.50;;;3.83;;
6791;SDS011;3433;48.730;9.108;2023-05-07T08:52:47;4.30;;;3.93;;
6791;SDS011;3433;48.730;9.108;2023-05-07T08:55:14;5.40;;;4.90;;
6791;SDS011;3433;48.730;9.108;2023-05-07T08:57:41;4.90;;;4.50;;
6791;SDS011;3433;48.730;9.108;2023-05-07T09:00:08;4.63;;;4.20;;
6791;SDS011;3433;48.730;9.108;2023-05-07T09:02:36;4.03;;;3.63;;
6791;SDS011;3433;48.730;9.108;2023-05-07T09:05:03;7.60;;;3.80;;
6791;SDS011;3433;48.730;9.108;2023-05-07T09:07:32;4.80;;;4.27;;
6791;SDS011;3433;48.730;9.108;2023-05-07T09:10:00;4.00;;;3.60;;
6791;SDS011;3433;48.730;9.108;2023-05-07T09:12:28;4.10;;;3.70;;
6791;SDS011;3433;48.730;9.108;2023-05-07T09:14:55;4.10;;;3.70;;
6791;SDS011;3433;48.730;9.108;2023-05-07T09:17:22;5.00;;;4.50;;
6791;SDS011;3433;48.730;9.108;2023-05-07T09:19:49;6.83;;;4.30;;
6791;SDS011;3433;48.730;9.108;2023-05-07T09:22:18;4.07;;;3.80;;
6791;SDS011;3433;48.730;9.108;2023-05-07T09:24:48;4.57;;;4.20;;
6791;SDS011;3433;48.730;9.108;2023-05-07T09:27:16;4.53;;;4.20;;
6791;SDS011;3433;48.730;9.108;2023-05-07T09:29:43;4.07;;;3.77;;
6791;SDS011;3433;48.730;9.108;2023-05-07T09:32:13;4.60;;;4.20;;
6791;SDS011;3433;48.730;9.108;2023-05-07T09:34:41;4.83;;;4.33;;
6791;SDS011;3433;48.730;9.108;2023-05-07T09:37:12;4.07;;;3.77;;
6791;SDS011;3433;48.730;9.108;2023-05-07T09:39:39;3.77;;;3.37;;
6791;SDS011;3433;48.730;9.108;2023-05-07T09:42:09;4.27;;;3.97;;
6791;SDS011;3433;48.730;9.108;2023-05-07T09:44:36;4.33;;;3.93;;
6791;SDS011;3433;48.730;9.108;2023-05-07T09:47:04;4.27;;;3.87;;
6791;SDS011;3433;48.730;9.108;2023-05-07T09:49:33;5.40;;;3.70;;
6791;SDS011;3433;48.730;9.108;2023-05-07T09:52:02;5.23;;;4.00;;
6791;SDS011;3433;48.730;9.108;2023-05-07T09:54:31;4.13;;;3.73;;
6791;SDS011;3433;48.730;9.108;2023-05-07T09:56:59;5.40;;;4.10;;
6791;SDS011;3433;48.730;9.108;2023-05-07T09:59:29;3.70;;;3.50;;
6791;SDS011;3433;48.730;9.108;2023-05-07T10:01:58;6.40;;;4.93;;
6791;SDS011;3433;48.730;9.108;2023-05-07T10:04:26;4.53;;;3.73;;
6791;SDS011;3433;48.730;9.108;2023-05-07T10:06:53;4.30;;;3.90;;
6791;SDS011;3433;48.730;9.108;2023-05-07T10:09:21;5.73;;;3.57;;
6791;SDS011;3433;48.730;9.108;2023-05-07T10:11:50;3.77;;;3.53;;
6791;SDS011;3433;48.730;9.108;2023-05-07T10:14:19;3.80;;;3.50;;
6791;SDS011;3433;48.730;9.108;2023-05-07T10:16:48;3.90;;;3.50;;
6791;SDS011;3433;48.730;9.108;2023-05-07T10:19:15;5.10;;;3.50;;
6791;SDS011;3433;48.730;9.108;2023-05-07T10:21:44;3.47;;;3.20;;
6791;SDS011;3433;48.730;9.108;2023-05-07T10:24:16;3.97;;;3.67;;
6791;SDS011;3433;48.730;9.108;2023-05-07T10:26:48;4.57;;;3.77;;
6791;SDS011;3433;48.730;9.108;2023-05-07T10:29:18;5.90;;;3.50;;
6791;SDS011;3433;48.730;9.108;2023-05-07T10:31:57;9.13;;;3.30;;
6791;SDS011;3433;48.730;9.108;2023-05-07T10:34:32;3.40;;;3.10;;
6791;SDS011;3433;48.730;9.108;2023-05-07T10:37:02;5.50;;;2.97;;
6791;SDS011;3433;48.730;9.108;2023-05-07T10:39:30;6.00;;;3.63;;
6791;SDS011;3433;48.730;9.108;2023-05-07T10:41:57;3.60;;;3.30;;
6791;SDS011;3433;48.730;9.108;2023-05-07T10:44:34;4.20;;;3.07;;
6791;SDS011;3433;48.730;9.108;2023-05-07T10:47:10;3.43;;;3.13;;
6791;SDS011;3433;48.730;9.108;2023-05-07T10:52:38;4.00;;;3.03;;
6791;SDS011;3433;48.730;9.108;2023-05-07T10:55:20;3.00;;;2.80;;
6791;SDS011;3433;48.730;9.108;2023-05-07T10:57:50;7.07;;;3.47;;
6791;SDS011;3433;48.730;9.108;2023-05-07T11:03:11;3.23;;;2.93;;
6791;SDS011;3433;48.730;9.108;2023-05-07T11:05:39;2.90;;;2.70;;
6791;SDS011;3433;48.730;9.108;2023-05-07T11:08:07;4.03;;;3.70;;
6791;SDS011;3433;48.730;9.108;2023-05-07T11:10:47;2.67;;;2.47;;
6791;SDS011;3433;48.730;9.108;2023-05-07T11:13:16;5.50;;;3.30;;
6791;SDS011;3433;48.730;9.108;2023-05-07T11:15:43;3.93;;;3.00;;
6791;SDS011;3433;48.730;9.108;2023-05-07T11:18:13;3.30;;;3.10;;
6791;SDS011;3433;48.730;9.108;2023-05-07T11:26:45;4.53;;;3.60;;
6791;SDS011;3433;48.730;9.108;2023-05-07T11:29:15;3.10;;;2.80;;
6791;SDS011;3433;48.730;9.108;2023-05-07T11:31:42;3.20;;;3.00;;
6791;SDS011;3433;48.730;9.108;2023-05-07T11:34:11;3.80;;;3.10;;
6791;SDS011;3433;48.730;9.108;2023-05-07T11:36:42;5.80;;;3.00;;
6791;SDS011;3433;48.730;9.108;2023-05-07T11:39:25;4.03;;;3.67;;
6791;SDS011;3433;48.730;9.108;2023-05-07T11:41:52;4.27;;;3.87;;
6791;SDS011;3433;48.730;9.108;2023-05-07T11:44:19;3.80;;;3.40;;
6791;SDS011;3433;48.730;9.108;2023-05-07T11:46:46;8.30;;;6.30;;
6791;SDS011;3433;48.730;9.108;2023-05-07T11:49:14;3.37;;;3.07;;
6791;SDS011;3433;48.730;9.108;2023-05-07T11:51:41;4.00;;;3.23;;
6791;SDS011;3433;48.730;9.108;2023-05-07T11:54:08;3.70;;;3.40;;
6791;SDS011;3433;48.730;9.108;2023-05-07T11:56:36;3.47;;;3.27;;
6791;SDS011;3433;48.730;9.108;2023-05-07T11:59:04;4.23;;;3.40;;
6791;SDS011;3433;48.730;9.108;2023-05-07T12:01:31;3.73;;;3.00;;
6791;SDS011;3433;48.730;9.108;2023-05-07T12:03:58;4.07;;;3.77;;
6791;SDS011;3433;48.730;9.108;2023-05-07T12:06:30;5.03;;;4.40;;
6791;SDS011;3433;48.730;9.108;2023-05-07T12:08:56;6.07;;;4.37;;
6791;SDS011;3433;48.730;9.108;2023-05-07T12:11:24;3.80;;;3.50;;
6791;SDS011;3433;48.730;9.108;2023-05-07T12:13:53;7.17;;;3.47;;
6791;SDS011;3433;48.730;9.108;2023-05-07T12:16:20;4.67;;;3.30;;
6791;SDS011;3433;48.730;9.108;2023-05-07T12:18:48;6.03;;;3.10;;
6791;SDS011;3433;48.730;9.108;2023-05-07T12:21:17;3.10;;;2.90;;
6791;SDS011;3433;48.730;9.108;2023-05-07T12:23:46;7.57;;;4.40;;
6791;SDS011;3433;48.730;9.108;2023-05-07T12:26:13;7.13;;;3.77;;
6791;SDS011;3433;48.730;9.108;2023-05-07T12:28:40;7.33;;;5.00;;
6791;SDS011;3433;48.730;9.108;2023-05-07T12:31:07;6.03;;;5.30;;
6791;SDS011;3433;48.730;9.108;2023-05-07T12:33:34;4.00;;;3.60;;
6791;SDS011;3433;48.730;9.108;2023-05-07T12:36:05;3.93;;;3.40;;
6791;SDS011;3433;48.730;9.108;2023-05-07T12:38:36;3.37;;;2.97;;
6791;SDS011;3433;48.730;9.108;2023-05-07T12:41:06;3.70;;;2.70;;
6791;SDS011;3433;48.730;9.108;2023-05-07T12:43:35;26.80;;;15.63;;
6791;SDS011;3433;48.730;9.108;2023-05-07T12:46:03;25.80;;;15.07;;
6791;SDS011;3433;48.730;9.108;2023-05-07T12:48:31;10.53;;;5.77;;
6791;SDS011;3433;48.730;9.108;2023-05-07T12:50:59;10.60;;;7.20;;
6791;SDS011;3433;48.730;9.108;2023-05-07T12:53:27;14.87;;;11.00;;
6791;SDS011;3433;48.730;9.108;2023-05-07T12:55:55;6.40;;;3.83;;
6791;SDS011;3433;48.730;9.108;2023-05-07T12:58:26;4.80;;;3.60;;
6791;SDS011;3433;48.730;9.108;2023-05-07T13:00:54;5.73;;;4.40;;
6791;SDS011;3433;48.730;9.108;2023-05-07T13:03:24;1.67;;;1.40;;
6791;SDS011;3433;48.730;9.108;2023-05-07T13:05:55;2.80;;;1.80;;
6791;SDS011;3433;48.730;9.108;2023-05-07T13:08:24;2.93;;;2.70;;
6791;SDS011;3433;48.730;9.108;2023-05-07T13:10:55;4.03;;;3.20;;
6791;SDS011;3433;48.730;9.108;2023-05-07T13:13:22;3.10;;;2.80;;
6791;SDS011;3433;48.730;9.108;2023-05-07T13:15:51;2.47;;;2.27;;
6791;SDS011;3433;48.730;9.108;2023-05-07T13:18:18;2.13;;;1.90;;
6791;SDS011;3433;48.730;9.108;2023-05-07T13:20:45;2.67;;;1.90;;
6791;SDS011;3433;48.730;9.108;2023-05-07T13:23:11;1.60;;;1.50;;
6791;SDS011;3433;48.730;9.108;2023-05-07T13:25:38;2.13;;;1.93;;
6791;SDS011;3433;48.730;9.108;2023-05-07T13:28:05;2.00;;;1.80;;
6791;SDS011;3433;48.730;9.108;2023-05-07T13:30:32;3.20;;;2.17;;
6791;SDS011;3433;48.730;9.108;2023-05-07T13:33:00;4.17;;;2.87;;
6791;SDS011;3433;48.730;9.108;2023-05-07T13:35:27;3.70;;;3.03;;
6791;SDS011;3433;48.730;9.108;2023-05-07T13:37:54;2.50;;;1.80;;
6791;SDS011;3433;48.730;9.108;2023-05-07T13:40:21;3.40;;;2.00;;
6791;SDS011;3433;48.730;9.108;2023-05-07T13:42:48;2.70;;;2.37;;
6791;SDS011;3433;48.730;9.108;2023-05-07T13:45:16;5.80;;;2.10;;
6791;SDS011;3433;48.730;9.108;2023-05-07T13:47:43;4.10;;;2.77;;
6791;SDS011;3433;48.730;9.108;2023-05-07T13:50:15;3.30;;;2.10;;
6791;SDS011;3433;48.730;9.108;2023-05-07T13:52:42;4.30;;;2.00;;
6791;SDS011;3433;48.730;9.108;2023-05-07T13:55:15;6.23;;;2.60;;
6791;SDS011;3433;48.730;9.108;2023-05-07T13:57:42;4.77;;;2.90;;
6791;SDS011;3433;48.730;9.108;2023-05-07T14:00:10;5.00;;;3.37;;
6791;SDS011;3433;48.730;9.108;2023-05-07T14:02:37;4.60;;;2.90;;
6791;SDS011;3433;48.730;9.108;2023-05-07T14:05:05;4.03;;;2.87;;
6791;SDS011;3433;48.730;9.108;2023-05-07T14:07:35;3.00;;;2.50;;
6791;SDS011;3433;48.730;9.108;2023-05-07T14:10:02;4.70;;;3.00;;
6791;SDS011;3433;48.730;9.108;2023-05-07T14:12:37;8.37;;;3.40;;
6791;SDS011;3433;48.730;9.108;2023-05-07T14:15:07;5.50;;;3.73;;
6791;SDS011;3433;48.730;9.108;2023-05-07T14:17:35;3.67;;;3.30;;
6791;SDS011;3433;48.730;9.108;2023-05-07T14:20:02;8.63;;;3.70;;
6791;SDS011;3433;48.730;9.108;2023-05-07T14:22:31;6.00;;;3.73;;
6791;SDS011;3433;48.730;9.108;2023-05-07T14:24:59;4.20;;;2.97;;
6791;SDS011;3433;48.730;9.108;2023-05-07T14:27:27;3.13;;;2.83;;
6791;SDS011;3433;48.730;9.108;2023-05-07T14:29:54;8.27;;;3.47;;
6791;SDS011;3433;48.730;9.108;2023-05-07T14:32:21;7.40;;;3.20;;
6791;SDS011;3433;48.730;9.108;2023-05-07T14:34:48;3.77;;;3.47;;
6791;SDS011;3433;48.730;9.108;2023-05-07T14:37:15;4.10;;;3.30;;
6791;SDS011;3433;48.730;9.108;2023-05-07T14:39:44;5.37;;;3.37;;
6791;SDS011;3433;48.730;9.108;2023-05-07T14:42:18;4.03;;;2.97;;
6791;SDS011;3433;48.730;9.108;2023-05-07T14:44:49;5.00;;;3.13;;
6791;SDS011;3433;48.730;9.108;2023-05-07T14:47:20;2.93;;;2.67;;
6791;SDS011;3433;48.730;9.108;2023-05-07T14:50:21;3.63;;;3.27;;
6791;SDS011;3433;48.730;9.108;2023-05-07T14:52:44;3.97;;;3.20;;
6791;SDS011;3433;48.730;9.108;2023-05-07T14:55:11;6.97;;;5.63;;
6791;SDS011;3433;48.730;9.108;2023-05-07T14:57:45;7.30;;;3.50;;
6791;SDS011;3433;48.730;9.108;2023-05-07T15:00:20;3.50;;;2.97;;
6791;SDS011;3433;48.730;9.108;2023-05-07T15:02:49;5.87;;;3.43;;
6791;SDS011;3433;48.730;9.108;2023-05-07T15:05:21;4.17;;;3.23;;
6791;SDS011;3433;48.730;9.108;2023-05-07T15:07:47;4.80;;;3.50;;
6791;SDS011;3433;48.730;9.108;2023-05-07T15:10:14;5.67;;;3.57;;
6791;SDS011;3433;48.730;9.108;2023-05-07T15:12:41;4.40;;;3.23;;
6791;SDS011;3433;48.730;9.108;2023-05-07T15:15:10;4.10;;;3.80;;
6791;SDS011;3433;48.730;9.108;2023-05-07T15:17:37;3.73;;;2.93;;
6791;SDS011;3433;48.730;9.108;2023-05-07T15:20:05;3.27;;;2.33;;
6791;SDS011;3433;48.730;9.108;2023-05-07T15:22:33;2.53;;;2.33;;
6791;SDS011;3433;48.730;9.108;2023-05-07T15:25:01;3.83;;;2.80;;
6791;SDS011;3433;48.730;9.108;2023-05-07T15:27:29;2.83;;;2.53;;
6791;SDS011;3433;48.730;9.108;2023-05-07T15:29:56;3.80;;;2.90;;
6791;SDS011;3433;48.730;9.108;2023-05-07T15:32:24;3.03;;;2.73;;